Time;durP1;ratioP1;P1;durP2;ratioP2;P2;SDS_P1;SDS_P2;PMS_P1;PMS_P2;Temp;Humidity;BMP_temperature;BMP_pressure;BME280_temperature;BME280_humidity;BME280_pressure;Samples;Min_cycle;Max_cycle;Signal;HPM_P1;HPM_P2
2023/05/20 00:01:20;;;;;;;12.70;3.33;;;;;;;;;;5029253;28;20252;-71
2023/05/20 00:03:45;;;;;;;10.27;3.65;;;;;;;;;;5021425;28;20198;-71
2023/05/20 00:06:11;;;;;;;8.80;3.95;;;;;;;;;;5019106;28;20182;-71
2023/05/20 00:08:36;;;;;;;12.55;3.60;;;;;;;;;;5030852;28;20193;-71
2023/05/20 00:11:02;;;;;;;8.00;3.25;;;;;;;;;;5034133;28;20613;-71
2023/05/20 00:13:27;;;;;;;14.27;3.35;;;;;;;;;;5025249;28;20214;-71
2023/05/20 00:15:52;;;;;;;7.40;3.80;;;;;;;;;;5029694;28;20193;-71
2023/05/20 00:18:18;;;;;;;8.35;2.92;;;;;;;;;;5028358;28;20508;-71
2023/05/20 00:20:43;;;;;;;7.53;3.45;;;;;;;;;;5009259;28;20195;-72
2023/05/20 00:23:09;;;;;;;9.23;3.30;;;;;;;;;;5022722;28;20672;-72
2023/05/20 00:25:34;;;;;;;9.25;3.40;;;;;;;;;;5023837;28;20202;-72
2023/05/20 00:27:59;;;;;;;7.03;3.13;;;;;;;;;;5019841;28;20182;-72
2023/05/20 00:30:25;;;;;;;6.32;3.58;;;;;;;;;;5027164;28;20595;-72
2023/05/20 00:32:50;;;;;;;11.02;3.28;;;;;;;;;;5016437;28;20210;-72
2023/05/20 00:35:15;;;;;;;9.68;3.63;;;;;;;;;;5029213;28;20591;-72
2023/05/20 00:37:41;;;;;;;8.10;3.38;;;;;;;;;;5025388;28;20190;-72
2023/05/20 00:40:08;;;;;;;8.38;3.28;;;;;;;;;;5026872;28;20646;-72
2023/05/20 00:42:33;;;;;;;8.15;3.53;;;;;;;;;;5027877;28;20192;-72
2023/05/20 00:44:59;;;;;;;10.02;3.50;;;;;;;;;;5036951;28;20268;-72
2023/05/20 00:47:28;;;;;;;6.75;2.80;;;;;;;;;;5034504;28;20182;-72
2023/05/20 00:49:53;;;;;;;11.35;3.28;;;;;;;;;;5037877;28;20194;-72
2023/05/20 00:52:19;;;;;;;7.95;2.97;;;;;;;;;;5018265;28;20222;-72
2023/05/20 00:54:45;;;;;;;11.50;3.38;;;;;;;;;;5023107;28;20190;-72
2023/05/20 00:57:11;;;;;;;7.68;2.92;;;;;;;;;;5029226;28;20215;-72
2023/05/20 00:59:37;;;;;;;11.02;3.22;;;;;;;;;;5018297;28;20222;-72
2023/05/20 01:02:04;;;;;;;5.55;2.97;;;;;;;;;;5025663;28;20265;-73
2023/05/20 01:04:30;;;;;;;8.65;2.67;;;;;;;;;;5031361;28;20204;-72
2023/05/20 01:06:57;;;;;;;5.45;2.40;;;;;;;;;;5012425;28;20692;-71
2023/05/20 01:09:23;;;;;;;6.40;2.90;;;;;;;;;;5025407;28;20186;-71
2023/05/20 01:12:01;;;;;;;6.72;2.92;;;;;;;;;;5025756;28;20240;-71
2023/05/20 01:14:30;;;;;;;7.07;3.35;;;;;;;;;;5026702;28;20229;-70
2023/05/20 01:16:57;;;;;;;7.80;2.75;;;;;;;;;;5014040;28;20591;-71
2023/05/20 01:19:34;;;;;;;7.05;2.65;;;;;;;;;;5025117;28;20197;-70
2023/05/20 01:22:02;;;;;;;6.18;3.78;;;;;;;;;;5010267;28;20198;-71
2023/05/20 01:24:27;;;;;;;6.15;3.15;;;;;;;;;;5021062;28;20284;-71
2023/05/20 01:26:53;;;;;;;8.27;3.13;;;;;;;;;;5012927;28;20382;-71
2023/05/20 01:29:18;;;;;;;6.53;2.95;;;;;;;;;;5023868;28;20642;-71
2023/05/20 01:31:45;;;;;;;5.53;2.65;;;;;;;;;;5042030;28;20630;-71
2023/05/20 01:34:11;;;;;;;5.03;2.78;;;;;;;;;;5026836;28;20468;-71
2023/05/20 01:36:39;;;;;;;6.20;3.00;;;;;;;;;;5042428;28;20212;-71
2023/05/20 01:39:05;;;;;;;7.88;3.00;;;;;;;;;;5032306;28;20321;-71
2023/05/20 01:41:33;;;;;;;7.85;2.80;;;;;;;;;;5030089;28;20198;-71
2023/05/20 01:43:59;;;;;;;8.38;3.05;;;;;;;;;;5026719;28;20178;-71
2023/05/20 01:46:24;;;;;;;4.18;2.58;;;;;;;;;;5041651;28;20189;-70
2023/05/20 01:48:50;;;;;;;6.22;2.90;;;;;;;;;;5027262;28;20202;-71
2023/05/20 01:51:16;;;;;;;5.30;2.58;;;;;;;;;;5028468;28;20206;-71
2023/05/20 01:53:42;;;;;;;7.18;2.90;;;;;;;;;;5035816;28;20224;-71
2023/05/20 01:56:07;;;;;;;8.95;2.58;;;;;;;;;;5041643;28;20201;-71
2023/05/20 01:58:32;;;;;;;4.30;2.50;;;;;;;;;;5031120;28;20197;-71
2023/05/20 02:00:58;;;;;;;8.05;2.60;;;;;;;;;;5031746;28;20576;-72
2023/05/20 02:03:24;;;;;;;6.00;2.72;;;;;;;;;;5035417;28;20190;-71
2023/05/20 02:05:49;;;;;;;5.57;2.65;;;;;;;;;;5032344;28;20566;-72
2023/05/20 02:08:15;;;;;;;11.43;3.42;;;;;;;;;;5045988;28;20182;-71
2023/05/20 02:10:40;;;;;;;6.88;2.80;;;;;;;;;;5040913;28;20193;-72
2023/05/20 02:13:06;;;;;;;6.93;3.30;;;;;;;;;;5036593;28;20737;-72
2023/05/20 02:15:31;;;;;;;7.43;2.78;;;;;;;;;;5037642;28;20198;-71
2023/05/20 02:17:56;;;;;;;4.18;2.67;;;;;;;;;;5024914;28;20353;-72
2023/05/20 02:20:22;;;;;;;7.10;2.90;;;;;;;;;;5026952;28;20198;-71
2023/05/20 02:22:47;;;;;;;7.97;3.08;;;;;;;;;;5025056;28;20216;-70
2023/05/20 02:25:13;;;;;;;7.28;2.78;;;;;;;;;;5027186;28;20221;-71
2023/05/20 02:27:39;;;;;;;7.05;2.65;;;;;;;;;;5024736;28;20197;-71
2023/05/20 02:30:05;;;;;;;6.50;2.63;;;;;;;;;;5031409;28;20566;-71
2023/05/20 02:32:32;;;;;;;6.53;2.80;;;;;;;;;;5041414;28;20217;-71
2023/05/20 02:34:57;;;;;;;4.70;2.67;;;;;;;;;;5033549;28;20257;-71
2023/05/20 02:37:23;;;;;;;5.15;2.58;;;;;;;;;;5035497;28;20194;-71
2023/05/20 02:39:48;;;;;;;6.97;2.60;;;;;;;;;;5033239;28;20240;-71
2023/05/20 02:42:14;;;;;;;7.10;3.03;;;;;;;;;;5031074;28;20220;-71
2023/05/20 02:44:40;;;;;;;4.75;2.45;;;;;;;;;;5030799;28;20641;-71
2023/05/20 02:47:05;;;;;;;7.35;3.08;;;;;;;;;;5020547;28;20252;-71
2023/05/20 02:49:31;;;;;;;5.20;3.00;;;;;;;;;;5033044;28;20343;-71
2023/05/20 02:51:56;;;;;;;5.63;2.70;;;;;;;;;;5026531;28;20203;-71
2023/05/20 02:54:21;;;;;;;4.80;2.53;;;;;;;;;;5027147;28;20217;-72
2023/05/20 02:56:47;;;;;;;9.88;2.65;;;;;;;;;;5031140;28;20217;-72
2023/05/20 02:59:12;;;;;;;4.10;3.08;;;;;;;;;;5022181;28;20195;-71
2023/05/20 03:01:39;;;;;;;7.22;2.63;;;;;;;;;;5026402;28;20291;-72
2023/05/20 03:04:04;;;;;;;4.93;2.40;;;;;;;;;;5029361;28;20187;-71
2023/05/20 03:06:33;;;;;;;3.22;2.30;;;;;;;;;;5048330;28;20186;-72
2023/05/20 03:08:58;;;;;;;8.48;3.08;;;;;;;;;;5016288;28;20579;-71
2023/05/20 03:11:23;;;;;;;6.78;2.70;;;;;;;;;;5027822;28;20261;-71
2023/05/20 03:13:49;;;;;;;4.93;2.50;;;;;;;;;;5031344;28;20210;-72
2023/05/20 03:16:15;;;;;;;7.68;2.60;;;;;;;;;;5032843;28;20186;-72
2023/05/20 03:18:41;;;;;;;5.03;2.50;;;;;;;;;;5027709;28;20244;-71
2023/05/20 03:21:07;;;;;;;6.20;2.70;;;;;;;;;;5015799;28;20627;-72
2023/05/20 03:23:32;;;;;;;4.88;2.83;;;;;;;;;;5040862;28;20229;-71
2023/05/20 03:25:57;;;;;;;5.53;2.28;;;;;;;;;;5015154;28;20684;-72
2023/05/20 03:28:23;;;;;;;5.60;2.95;;;;;;;;;;5026984;28;20197;-71
2023/05/20 03:30:48;;;;;;;6.03;2.60;;;;;;;;;;5024906;28;20189;-71
2023/05/20 03:33:14;;;;;;;4.40;2.42;;;;;;;;;;5034565;28;20222;-71
2023/05/20 03:35:40;;;;;;;6.25;2.70;;;;;;;;;;5024868;28;20677;-71
2023/05/20 03:38:05;;;;;;;7.35;2.67;;;;;;;;;;5025483;28;20285;-71
2023/05/20 03:40:31;;;;;;;9.00;2.40;;;;;;;;;;5027056;28;20212;-72
2023/05/20 03:42:56;;;;;;;5.25;2.80;;;;;;;;;;5033829;28;20185;-71
2023/05/20 03:45:22;;;;;;;6.40;2.75;;;;;;;;;;5031590;28;20665;-71
2023/05/20 03:47:47;;;;;;;7.40;2.55;;;;;;;;;;5025257;28;20260;-71
2023/05/20 03:50:12;;;;;;;6.60;2.33;;;;;;;;;;5018618;28;20272;-71
2023/05/20 03:52:39;;;;;;;5.72;2.60;;;;;;;;;;5024910;28;20210;-71
2023/05/20 03:55:05;;;;;;;7.10;3.05;;;;;;;;;;5031730;28;20228;-71
2023/05/20 03:57:31;;;;;;;6.80;2.50;;;;;;;;;;5027680;28;20217;-71
2023/05/20 03:59:56;;;;;;;4.88;2.42;;;;;;;;;;5021281;28;20266;-71
2023/05/20 04:02:21;;;;;;;5.60;2.60;;;;;;;;;;5024025;28;20198;-71
2023/05/20 04:04:47;;;;;;;5.65;2.50;;;;;;;;;;5024069;28;20321;-71
2023/05/20 04:07:12;;;;;;;4.88;2.60;;;;;;;;;;5025415;28;20475;-71
2023/05/20 04:09:38;;;;;;;5.25;2.20;;;;;;;;;;5008886;28;20281;-71
2023/05/20 04:12:06;;;;;;;2.78;2.20;;;;;;;;;;5020297;28;20186;-71
2023/05/20 04:14:33;;;;;;;7.75;2.60;;;;;;;;;;5021467;28;20213;-71
2023/05/20 04:17:00;;;;;;;5.82;2.22;;;;;;;;;;5021568;28;20709;-71
2023/05/20 04:19:27;;;;;;;5.25;2.28;;;;;;;;;;5029553;28;20212;-71
2023/05/20 04:21:52;;;;;;;4.03;2.08;;;;;;;;;;5024163;28;20282;-71
2023/05/20 04:24:18;;;;;;;6.13;2.63;;;;;;;;;;5010025;28;20190;-71
2023/05/20 04:26:43;;;;;;;4.32;2.38;;;;;;;;;;5021218;28;20592;-71
2023/05/20 04:29:08;;;;;;;3.33;2.10;;;;;;;;;;5028724;28;20244;-71
2023/05/20 04:31:34;;;;;;;4.15;2.33;;;;;;;;;;5024855;28;20209;-72
2023/05/20 04:33:59;;;;;;;6.18;2.28;;;;;;;;;;5017555;28;20690;-72
2023/05/20 04:36:27;;;;;;;4.88;2.05;;;;;;;;;;5032914;28;20197;-72
2023/05/20 04:38:54;;;;;;;3.25;2.10;;;;;;;;;;5038923;28;20226;-72
2023/05/20 04:41:19;;;;;;;2.55;1.85;;;;;;;;;;5023504;28;20214;-72
2023/05/20 04:43:45;;;;;;;5.18;2.47;;;;;;;;;;5015791;28;20226;-72
2023/05/20 04:46:10;;;;;;;3.40;2.10;;;;;;;;;;5025279;28;20224;-72
2023/05/20 04:48:36;;;;;;;4.43;2.47;;;;;;;;;;5008873;28;20213;-72
2023/05/20 04:51:01;;;;;;;4.00;2.03;;;;;;;;;;5025024;28;20209;-73
2023/05/20 04:53:29;;;;;;;5.22;2.15;;;;;;;;;;5028029;28;20295;-72
2023/05/20 04:55:55;;;;;;;5.57;2.10;;;;;;;;;;5034443;28;20694;-73
2023/05/20 04:58:23;;;;;;;3.70;2.42;;;;;;;;;;5040799;28;20193;-72
2023/05/20 05:00:49;;;;;;;3.38;2.03;;;;;;;;;;5025711;28;20636;-73
2023/05/20 05:03:15;;;;;;;3.35;2.00;;;;;;;;;;5044555;28;20178;-73
2023/05/20 05:05:41;;;;;;;4.63;2.00;;;;;;;;;;5028569;28;20217;-71
2023/05/20 05:08:07;;;;;;;2.80;2.00;;;;;;;;;;5029986;28;20187;-72
2023/05/20 05:10:33;;;;;;;5.70;1.80;;;;;;;;;;5028290;28;20194;-72
2023/05/20 05:12:59;;;;;;;2.97;1.80;;;;;;;;;;5031727;28;20267;-72
2023/05/20 05:15:25;;;;;;;6.30;2.35;;;;;;;;;;5045677;28;20200;-72
2023/05/20 05:17:50;;;;;;;3.40;2.10;;;;;;;;;;5029370;28;20563;-73
2023/05/20 05:20:16;;;;;;;5.80;2.20;;;;;;;;;;5020615;28;20232;-71
2023/05/20 05:22:42;;;;;;;6.80;1.92;;;;;;;;;;5029677;28;20649;-72
2023/05/20 05:25:08;;;;;;;3.10;1.90;;;;;;;;;;5028795;28;20193;-71
2023/05/20 05:27:34;;;;;;;6.22;2.10;;;;;;;;;;5022680;28;20221;-72
2023/05/20 05:30:01;;;;;;;2.90;2.10;;;;;;;;;;5027904;28;20316;-72
2023/05/20 05:32:26;;;;;;;2.72;1.73;;;;;;;;;;5034340;28;20319;-72
2023/05/20 05:34:51;;;;;;;6.28;1.77;;;;;;;;;;5016676;28;20617;-71
2023/05/20 05:37:17;;;;;;;2.53;1.90;;;;;;;;;;5012526;28;20202;-72
2023/05/20 05:39:42;;;;;;;5.95;2.10;;;;;;;;;;5027084;28;20315;-71
2023/05/20 05:42:07;;;;;;;4.78;2.30;;;;;;;;;;5025429;28;20190;-72
2023/05/20 05:44:33;;;;;;;3.92;1.73;;;;;;;;;;5038838;28;20280;-70
2023/05/20 05:46:58;;;;;;;4.20;2.17;;;;;;;;;;5021749;28;20650;-70
2023/05/20 05:49:23;;;;;;;4.30;1.95;;;;;;;;;;5024611;28;20190;-71
2023/05/20 05:51:50;;;;;;;3.63;2.03;;;;;;;;;;5019342;28;20412;-72
2023/05/20 05:54:16;;;;;;;5.35;2.00;;;;;;;;;;5018485;28;20234;-72
2023/05/20 05:56:41;;;;;;;4.65;1.70;;;;;;;;;;5022966;28;20221;-72
2023/05/20 05:59:07;;;;;;;3.10;1.70;;;;;;;;;;5015122;28;20191;-71
2023/05/20 06:01:32;;;;;;;5.25;1.98;;;;;;;;;;5012783;28;20214;-72
2023/05/20 06:03:57;;;;;;;4.45;1.90;;;;;;;;;;5023358;28;20190;-71
2023/05/20 06:06:23;;;;;;;4.20;1.85;;;;;;;;;;5025515;28;20563;-72
2023/05/20 06:08:48;;;;;;;4.63;1.90;;;;;;;;;;5020526;28;20208;-72
2023/05/20 06:11:13;;;;;;;3.47;2.10;;;;;;;;;;5028571;28;20186;-72
2023/05/20 06:13:39;;;;;;;2.13;1.60;;;;;;;;;;5028115;28;20704;-71
2023/05/20 06:16:04;;;;;;;2.28;1.65;;;;;;;;;;5019166;28;20187;-71
2023/05/20 06:18:30;;;;;;;4.90;2.10;;;;;;;;;;5019032;28;20514;-71
2023/05/20 06:20:56;;;;;;;2.70;2.03;;;;;;;;;;5018432;28;20205;-71
2023/05/20 06:23:21;;;;;;;4.30;2.30;;;;;;;;;;5023144;28;20278;-71
2023/05/20 06:25:47;;;;;;;3.17;2.10;;;;;;;;;;5034373;28;20205;-71
2023/05/20 06:28:13;;;;;;;5.65;2.17;;;;;;;;;;5016284;28;20241;-72
2023/05/20 06:30:39;;;;;;;4.13;1.90;;;;;;;;;;5024362;28;20186;-71
2023/05/20 06:33:04;;;;;;;3.05;2.28;;;;;;;;;;5025090;28;20214;-70
2023/05/20 06:35:30;;;;;;;5.10;1.80;;;;;;;;;;5018649;28;20214;-70
2023/05/20 06:37:55;;;;;;;3.45;2.08;;;;;;;;;;5027226;28;20388;-70
2023/05/20 06:40:21;;;;;;;6.05;1.90;;;;;;;;;;5033685;28;20229;-70
2023/05/20 06:42:46;;;;;;;4.32;2.00;;;;;;;;;;5019007;28;20186;-71
2023/05/20 06:45:12;;;;;;;3.10;1.88;;;;;;;;;;5028227;28;20255;-71
2023/05/20 06:47:38;;;;;;;4.60;2.38;;;;;;;;;;5023021;28;20197;-72
2023/05/20 06:50:03;;;;;;;3.28;2.08;;;;;;;;;;5029449;28;20194;-72
2023/05/20 06:52:29;;;;;;;5.50;2.40;;;;;;;;;;5025286;28;20195;-71
2023/05/20 06:54:54;;;;;;;4.07;2.15;;;;;;;;;;5027415;28;20289;-71
2023/05/20 06:57:21;;;;;;;4.38;2.63;;;;;;;;;;5026207;28;20224;-71
2023/05/20 06:59:46;;;;;;;4.35;2.50;;;;;;;;;;5021094;28;20185;-71
2023/05/20 07:02:11;;;;;;;5.97;2.55;;;;;;;;;;5019882;28;20704;-71
2023/05/20 07:04:37;;;;;;;3.58;2.47;;;;;;;;;;5025950;28;20882;-70
2023/05/20 07:07:02;;;;;;;5.75;2.10;;;;;;;;;;5026826;28;20363;-70
2023/05/20 07:09:28;;;;;;;3.63;2.40;;;;;;;;;;5023547;28;20190;-72
2023/05/20 07:11:53;;;;;;;3.33;2.35;;;;;;;;;;5027457;28;20193;-71
2023/05/20 07:14:18;;;;;;;3.42;2.30;;;;;;;;;;5020659;28;20665;-71
2023/05/20 07:16:44;;;;;;;5.47;2.22;;;;;;;;;;5023791;28;20194;-71
2023/05/20 07:19:09;;;;;;;3.45;2.70;;;;;;;;;;5023188;28;20341;-69
2023/05/20 07:21:35;;;;;;;4.70;2.17;;;;;;;;;;5039789;28;20322;-70
2023/05/20 07:24:00;;;;;;;3.22;2.20;;;;;;;;;;5021192;28;20193;-71
2023/05/20 07:26:25;;;;;;;5.70;2.35;;;;;;;;;;5019895;28;20274;-69
2023/05/20 07:28:51;;;;;;;4.80;2.70;;;;;;;;;;5014597;28;20641;-70
2023/05/20 07:31:16;;;;;;;3.72;2.70;;;;;;;;;;5018209;28;20334;-69
2023/05/20 07:33:42;;;;;;;3.95;2.40;;;;;;;;;;5020111;28;20261;-69
2023/05/20 07:36:07;;;;;;;3.03;2.67;;;;;;;;;;5027164;28;20502;-71
2023/05/20 07:38:32;;;;;;;3.92;2.80;;;;;;;;;;5028404;28;20242;-70
2023/05/20 07:40:58;;;;;;;4.70;2.63;;;;;;;;;;5017671;28;20189;-70
2023/05/20 07:43:23;;;;;;;3.42;2.55;;;;;;;;;;5032226;28;20220;-70
2023/05/20 07:45:48;;;;;;;4.93;2.63;;;;;;;;;;5034937;28;20693;-69
2023/05/20 07:48:14;;;;;;;2.80;2.50;;;;;;;;;;5021852;28;20194;-70
2023/05/20 07:50:39;;;;;;;2.92;2.40;;;;;;;;;;5011703;28;20195;-71
2023/05/20 07:53:05;;;;;;;5.47;2.63;;;;;;;;;;5027170;28;20702;-71
2023/05/20 07:55:33;;;;;;;5.45;2.60;;;;;;;;;;5026590;28;20668;-72
2023/05/20 07:57:59;;;;;;;6.53;2.53;;;;;;;;;;5027355;28;20265;-71
2023/05/20 08:00:24;;;;;;;7.85;3.20;;;;;;;;;;5019735;28;20301;-70
2023/05/20 08:02:49;;;;;;;4.18;2.70;;;;;;;;;;5026307;28;20190;-68
2023/05/20 08:05:15;;;;;;;3.33;2.30;;;;;;;;;;5034550;28;20190;-66
2023/05/20 08:07:40;;;;;;;5.53;2.80;;;;;;;;;;5030308;28;20186;-71
2023/05/20 08:10:06;;;;;;;3.00;2.20;;;;;;;;;;5018529;28;20281;-70
2023/05/20 08:12:32;;;;;;;5.35;2.53;;;;;;;;;;5024584;28;20198;-71
2023/05/20 08:14:57;;;;;;;7.07;2.50;;;;;;;;;;5028796;28;20189;-69
2023/05/20 08:17:22;;;;;;;5.00;2.33;;;;;;;;;;5025861;28;20672;-69
2023/05/20 08:19:48;;;;;;;2.85;2.00;;;;;;;;;;5027660;28;20198;-69
2023/05/20 08:22:13;;;;;;;3.80;2.60;;;;;;;;;;5025092;28;20284;-70
2023/05/20 08:24:38;;;;;;;4.28;2.10;;;;;;;;;;5026705;28;20613;-65
2023/05/20 08:27:04;;;;;;;5.97;2.20;;;;;;;;;;5019687;28;20701;-72
2023/05/20 08:29:29;;;;;;;5.35;2.40;;;;;;;;;;5026976;28;20277;-71
2023/05/20 08:31:55;;;;;;;4.40;2.55;;;;;;;;;;5020154;28;20186;-71
2023/05/20 08:34:21;;;;;;;5.38;2.20;;;;;;;;;;5037993;28;20228;-69
2023/05/20 08:36:46;;;;;;;4.40;2.30;;;;;;;;;;5033946;28;20212;-71
2023/05/20 08:39:11;;;;;;;4.35;1.98;;;;;;;;;;5024936;28;20874;-69
2023/05/20 08:41:38;;;;;;;3.10;2.40;;;;;;;;;;5021089;28;20728;-69
2023/05/20 08:44:04;;;;;;;2.85;1.85;;;;;;;;;;5025233;28;20564;-71
2023/05/20 08:46:33;;;;;;;6.10;2.08;;;;;;;;;;5023684;28;20190;-71
2023/05/20 08:48:58;;;;;;;3.78;2.05;;;;;;;;;;5019763;28;20190;-68
2023/05/20 08:51:26;;;;;;;5.32;2.50;;;;;;;;;;5016598;28;20277;-71
2023/05/20 08:53:52;;;;;;;7.53;2.35;;;;;;;;;;5027038;28;20241;-70
2023/05/20 08:56:18;;;;;;;3.45;2.30;;;;;;;;;;5029669;28;20641;-71
2023/05/20 08:58:45;;;;;;;4.93;2.38;;;;;;;;;;5026032;28;20198;-72
2023/05/20 09:01:11;;;;;;;6.05;2.13;;;;;;;;;;5023368;28;20615;-70
2023/05/20 09:03:36;;;;;;;3.60;2.22;;;;;;;;;;5026332;28;20288;-66
2023/05/20 09:06:15;;;;;;;4.88;2.50;;;;;;;;;;5034098;28;20496;-71
2023/05/20 09:08:41;;;;;;;4.22;2.30;;;;;;;;;;5026676;28;20292;-66
2023/05/20 09:11:09;;;;;;;4.32;1.90;;;;;;;;;;5027176;28;20186;-70
2023/05/20 09:13:34;;;;;;;4.07;2.10;;;;;;;;;;5032315;28;20292;-71
2023/05/20 09:16:00;;;;;;;4.40;2.17;;;;;;;;;;5026476;28;20193;-71
2023/05/20 09:18:26;;;;;;;3.90;2.20;;;;;;;;;;5026367;28;20189;-69
2023/05/20 09:20:51;;;;;;;9.52;2.13;;;;;;;;;;5023543;28;20197;-67
2023/05/20 09:23:19;;;;;;;5.97;2.25;;;;;;;;;;5022723;28;20556;-70
2023/05/20 09:25:49;;;;;;;3.80;1.90;;;;;;;;;;5026387;28;20216;-70
2023/05/20 09:28:15;;;;;;;2.40;1.92;;;;;;;;;;5028574;28;20273;-69
2023/05/20 09:30:40;;;;;;;4.40;1.85;;;;;;;;;;5043372;28;20276;-71
2023/05/20 09:33:08;;;;;;;7.28;2.05;;;;;;;;;;5020122;28;20221;-71
2023/05/20 09:35:38;;;;;;;6.55;1.75;;;;;;;;;;5031224;28;20330;-71
2023/05/20 09:38:05;;;;;;;7.95;2.30;;;;;;;;;;5029146;28;20354;-71
2023/05/20 09:40:32;;;;;;;3.22;1.60;;;;;;;;;;5040550;28;20193;-71
2023/05/20 09:43:02;;;;;;;3.95;1.90;;;;;;;;;;5027062;28;20481;-67
2023/05/20 09:45:28;;;;;;;3.55;2.00;;;;;;;;;;5028288;28;20248;-70
2023/05/20 09:47:55;;;;;;;5.97;1.70;;;;;;;;;;5016385;28;20656;-70
2023/05/20 09:50:22;;;;;;;2.50;1.50;;;;;;;;;;5027969;28;20216;-68
2023/05/20 09:52:48;;;;;;;7.05;2.30;;;;;;;;;;5026981;28;20225;-69
2023/05/20 09:55:16;;;;;;;5.43;1.90;;;;;;;;;;5018443;28;20193;-71
2023/05/20 09:57:41;;;;;;;9.45;1.90;;;;;;;;;;5021748;28;20612;-71
2023/05/20 10:00:07;;;;;;;5.60;1.67;;;;;;;;;;5022106;28;20278;-70
2023/05/20 10:02:34;;;;;;;3.65;1.40;;;;;;;;;;5026360;28;20220;-71
2023/05/20 10:05:05;;;;;;;3.83;1.60;;;;;;;;;;5024626;28;20226;-71
2023/05/20 10:07:51;;;;;;;3.05;1.42;;;;;;;;;;5009873;28;20210;-71
2023/05/20 10:10:21;;;;;;;2.10;1.65;;;;;;;;;;5017986;28;20201;-71
2023/05/20 10:13:23;;;;;;;3.38;1.60;;;;;;;;;;5021956;28;20214;-67
2023/05/20 10:16:03;;;;;;;5.47;1.60;;;;;;;;;;5020056;28;20497;-71
2023/05/20 10:18:48;;;;;;;4.28;1.80;;;;;;;;;;5021891;28;20193;-72
2023/05/20 10:21:15;;;;;;;3.58;1.90;;;;;;;;;;5038735;28;20280;-71
2023/05/20 10:23:41;;;;;;;3.15;1.80;;;;;;;;;;5029945;28;20555;-71
2023/05/20 10:26:06;;;;;;;2.72;1.70;;;;;;;;;;5028837;28;20201;-71
2023/05/20 10:28:36;;;;;;;3.30;1.48;;;;;;;;;;5037921;28;20662;-68
2023/05/20 10:31:02;;;;;;;3.97;1.60;;;;;;;;;;5037556;28;20247;-72
2023/05/20 10:33:29;;;;;;;4.82;1.60;;;;;;;;;;5027774;28;20202;-71
2023/05/20 10:35:58;;;;;;;8.00;1.75;;;;;;;;;;5023486;28;20276;-71
2023/05/20 10:38:24;;;;;;;4.97;2.15;;;;;;;;;;5030659;28;20768;-70
2023/05/20 10:40:50;;;;;;;4.38;1.45;;;;;;;;;;5025652;28;20182;-72
2023/05/20 10:43:17;;;;;;;9.48;1.80;;;;;;;;;;5025568;28;20193;-71
2023/05/20 10:45:57;;;;;;;6.40;1.98;;;;;;;;;;5030335;28;20609;-68
2023/05/20 10:48:27;;;;;;;9.15;2.05;;;;;;;;;;5028288;28;20190;-71
2023/05/20 10:50:55;;;;;;;4.20;1.70;;;;;;;;;;5027043;28;20213;-71
2023/05/20 10:53:23;;;;;;;2.08;1.67;;;;;;;;;;5022256;28;20218;-69
2023/05/20 10:55:50;;;;;;;4.00;1.60;;;;;;;;;;5023837;28;20174;-70
2023/05/20 10:58:16;;;;;;;5.50;1.75;;;;;;;;;;5028749;28;20187;-69
2023/05/20 11:00:42;;;;;;;6.35;1.38;;;;;;;;;;5028705;28;20217;-72
2023/05/20 11:03:08;;;;;;;4.60;1.52;;;;;;;;;;5020495;28;20186;-71
2023/05/20 11:05:34;;;;;;;2.67;1.70;;;;;;;;;;5018501;28;20233;-72
2023/05/20 11:08:05;;;;;;;5.22;1.23;;;;;;;;;;5030862;28;20208;-72
2023/05/20 11:10:35;;;;;;;5.82;2.00;;;;;;;;;;5028083;28;20293;-70
2023/05/20 11:13:02;;;;;;;7.50;1.58;;;;;;;;;;5023581;28;20240;-72
2023/05/20 11:15:29;;;;;;;3.83;2.03;;;;;;;;;;5028650;28;20603;-71
2023/05/20 11:17:56;;;;;;;3.35;1.58;;;;;;;;;;5029907;28;20246;-72
2023/05/20 11:20:23;;;;;;;4.35;1.38;;;;;;;;;;5025405;28;20225;-73
2023/05/20 11:22:53;;;;;;;4.00;1.42;;;;;;;;;;5027032;28;20186;-71
2023/05/20 11:25:20;;;;;;;5.47;1.70;;;;;;;;;;5026783;28;20541;-70
2023/05/20 11:27:46;;;;;;;6.18;1.30;;;;;;;;;;5023438;28;20217;-71
2023/05/20 11:30:17;;;;;;;3.88;1.48;;;;;;;;;;5030448;28;20189;-71
2023/05/20 11:32:59;;;;;;;2.08;1.38;;;;;;;;;;5025768;28;20269;-70
2023/05/20 11:35:27;;;;;;;3.53;1.60;;;;;;;;;;5027058;28;20212;-71
2023/05/20 11:38:07;;;;;;;2.58;1.42;;;;;;;;;;5027105;28;20208;-71
2023/05/20 11:40:34;;;;;;;2.42;1.30;;;;;;;;;;5021672;28;20212;-71
2023/05/20 11:43:01;;;;;;;3.90;1.50;;;;;;;;;;5028479;28;20251;-71
2023/05/20 11:45:37;;;;;;;2.37;1.33;;;;;;;;;;4329090;28;10020672;-71
2023/05/20 11:48:03;;;;;;;3.63;1.25;;;;;;;;;;5018055;28;20182;-68
2023/05/20 11:50:43;;;;;;;3.15;1.42;;;;;;;;;;5018490;28;20205;-71
2023/05/20 11:53:13;;;;;;;6.90;1.70;;;;;;;;;;5013018;28;20217;-71
2023/05/20 11:55:52;;;;;;;3.92;1.45;;;;;;;;;;5019545;28;20680;-73
2023/05/20 11:58:19;;;;;;;6.38;1.60;;;;;;;;;;5025677;28;20186;-71
2023/05/20 12:00:45;;;;;;;3.40;1.23;;;;;;;;;;5026070;28;20270;-72
2023/05/20 12:03:11;;;;;;;2.40;1.58;;;;;;;;;;5032965;28;20194;-72
2023/05/20 12:05:37;;;;;;;4.38;1.27;;;;;;;;;;5031415;28;20194;-72
2023/05/20 12:08:02;;;;;;;2.75;1.50;;;;;;;;;;5025394;28;20190;-70
2023/05/20 12:10:28;;;;;;;1.80;1.20;;;;;;;;;;5025340;28;20194;-72
2023/05/20 12:12:53;;;;;;;4.68;1.58;;;;;;;;;;5020528;28;20290;-72
2023/05/20 12:15:19;;;;;;;4.97;1.13;;;;;;;;;;5034160;28;20193;-70
2023/05/20 12:17:47;;;;;;;6.45;1.80;;;;;;;;;;5034548;28;20213;-73
2023/05/20 12:20:15;;;;;;;2.30;1.17;;;;;;;;;;5024529;28;20190;-73
2023/05/20 12:22:42;;;;;;;2.30;1.60;;;;;;;;;;5028322;28;20194;-74
2023/05/20 12:25:08;;;;;;;4.57;1.58;;;;;;;;;;5030605;28;20187;-72
2023/05/20 12:27:33;;;;;;;2.80;1.35;;;;;;;;;;5036216;28;20217;-73
2023/05/20 12:29:59;;;;;;;2.75;1.45;;;;;;;;;;5032570;28;20225;-72
2023/05/20 12:32:24;;;;;;;5.82;1.67;;;;;;;;;;5042532;28;20202;-72
2023/05/20 12:34:50;;;;;;;2.47;1.40;;;;;;;;;;5025118;28;20756;-73
2023/05/20 12:37:15;;;;;;;2.63;1.50;;;;;;;;;;5040044;28;20452;-71
2023/05/20 12:39:41;;;;;;;4.78;1.48;;;;;;;;;;5027831;28;20234;-72
2023/05/20 12:42:06;;;;;;;5.88;1.60;;;;;;;;;;5027641;28;20585;-71
2023/05/20 12:44:31;;;;;;;6.05;1.40;;;;;;;;;;5014340;28;20210;-73
2023/05/20 12:46:57;;;;;;;2.47;1.38;;;;;;;;;;5017403;28;20194;-72
2023/05/20 12:49:22;;;;;;;5.18;1.50;;;;;;;;;;5025616;28;20201;-73
2023/05/20 12:51:48;;;;;;;2.63;1.30;;;;;;;;;;5019400;28;20187;-71
2023/05/20 12:54:13;;;;;;;4.30;1.55;;;;;;;;;;5022510;28;20286;-72
2023/05/20 12:56:39;;;;;;;1.55;1.20;;;;;;;;;;5014909;28;20564;-72
2023/05/20 12:59:05;;;;;;;2.35;1.58;;;;;;;;;;5026961;28;20193;-72
2023/05/20 13:01:30;;;;;;;4.22;1.10;;;;;;;;;;5010316;28;20818;-72
2023/05/20 13:03:55;;;;;;;3.75;1.38;;;;;;;;;;5028192;28;20198;-73
2023/05/20 13:06:21;;;;;;;3.50;1.42;;;;;;;;;;5026599;28;20212;-71
2023/05/20 13:08:46;;;;;;;2.20;1.40;;;;;;;;;;5036322;28;20272;-72
2023/05/20 13:11:11;;;;;;;3.30;1.30;;;;;;;;;;5027920;28;20201;-72
2023/05/20 13:13:37;;;;;;;6.30;1.40;;;;;;;;;;5026494;28;20237;-73
2023/05/20 13:16:03;;;;;;;4.20;1.35;;;;;;;;;;5015228;28;20503;-73
2023/05/20 13:18:28;;;;;;;2.35;1.52;;;;;;;;;;5023445;28;20194;-71
2023/05/20 13:20:53;;;;;;;3.80;1.38;;;;;;;;;;5028337;28;20222;-70
2023/05/20 13:23:19;;;;;;;6.88;1.55;;;;;;;;;;5023021;28;20248;-66
2023/05/20 13:25:44;;;;;;;3.35;1.65;;;;;;;;;;5019419;28;20226;-70
2023/05/20 13:28:11;;;;;;;1.80;1.20;;;;;;;;;;5022924;28;20337;-72
2023/05/20 13:30:36;;;;;;;5.65;1.33;;;;;;;;;;5028313;28;20275;-71
2023/05/20 13:33:02;;;;;;;3.80;1.40;;;;;;;;;;5023192;28;20255;-70
2023/05/20 13:35:27;;;;;;;5.07;1.42;;;;;;;;;;5016985;28;20273;-72
2023/05/20 13:37:53;;;;;;;2.72;1.30;;;;;;;;;;5034981;28;20185;-73
2023/05/20 13:40:18;;;;;;;1.85;1.33;;;;;;;;;;5034594;28;20730;-71
2023/05/20 13:42:43;;;;;;;2.10;1.13;;;;;;;;;;5025093;28;20193;-72
2023/05/20 13:45:09;;;;;;;1.70;1.27;;;;;;;;;;5020743;28;20230;-71
2023/05/20 13:47:34;;;;;;;4.50;1.40;;;;;;;;;;5026407;28;20772;-72
2023/05/20 13:50:00;;;;;;;2.97;1.38;;;;;;;;;;5027537;28;20193;-72
2023/05/20 13:52:25;;;;;;;1.48;1.17;;;;;;;;;;5025432;28;20297;-71
2023/05/20 13:54:50;;;;;;;5.35;1.42;;;;;;;;;;5012581;28;20218;-72
2023/05/20 13:57:16;;;;;;;2.28;1.30;;;;;;;;;;5024435;28;20642;-71
2023/05/20 13:59:41;;;;;;;2.05;1.10;;;;;;;;;;5026249;28;20194;-72
2023/05/20 14:02:07;;;;;;;4.60;1.50;;;;;;;;;;5017743;28;20229;-71
2023/05/20 14:04:38;;;;;;;1.77;1.30;;;;;;;;;;5020499;28;20201;-71
2023/05/20 14:07:04;;;;;;;5.07;1.17;;;;;;;;;;5026198;28;20194;-71
2023/05/20 14:09:30;;;;;;;2.55;1.23;;;;;;;;;;5023480;28;20190;-72
2023/05/20 14:11:55;;;;;;;3.83;1.27;;;;;;;;;;5026419;28;20193;-71
2023/05/20 14:14:21;;;;;;;2.55;1.13;;;;;;;;;;5030025;28;20244;-72
2023/05/20 14:16:46;;;;;;;4.80;1.45;;;;;;;;;;5036785;28;20356;-72
2023/05/20 14:19:11;;;;;;;3.08;1.33;;;;;;;;;;5024650;28;20253;-70
2023/05/20 14:21:37;;;;;;;4.43;1.40;;;;;;;;;;5033412;28;20223;-72
2023/05/20 14:24:02;;;;;;;6.18;1.45;;;;;;;;;;5019229;28;20213;-72
2023/05/20 14:26:27;;;;;;;3.53;1.50;;;;;;;;;;5032221;28;20209;-71
2023/05/20 14:28:53;;;;;;;2.72;1.50;;;;;;;;;;5018680;28;20182;-72
2023/05/20 14:31:18;;;;;;;2.70;1.27;;;;;;;;;;5019770;28;20667;-72
2023/05/20 14:33:43;;;;;;;1.90;1.20;;;;;;;;;;5024736;28;20219;-72
2023/05/20 14:36:10;;;;;;;4.75;1.60;;;;;;;;;;5028884;28;20216;-72
2023/05/20 14:38:35;;;;;;;4.78;1.40;;;;;;;;;;5030863;28;20238;-72